DLH1V LOWW-EDDF
Flight info
| Callsign | DLH1V |
|---|---|
| Flight time | 1h 0m |
| Altitude | 30000 |
| Route | LUGEM1C/29 LUGEM DCT SUBEN T161 DEBHI DEBHI1B |
| Aircraft | A321/M-SDE2E3FGIJ1LORWXYZ/HB1 |
Departure
| Time | 2026-05-07 14:12 |
|---|---|
| Airport | Vienna International Airport (LOWW) |
Arrival
| Time | 2026-05-07 15:12 |
|---|---|
| Airport | Frankfurt Main Airport (EDDF) |
| Time | Latitude | Longitude | Altitude | Speed | Heading |
|---|---|---|---|---|---|
| 2026-05-07 13:47 | 48.11811 | 16.57044 | 618 ft | 0 kts | 205° |
| 2026-05-07 14:03 | 48.11832 | 16.57056 | 623 ft | 4 kts | 197° |
| 2026-05-07 14:03 | 48.11858 | 16.57064 | 620 ft | 4 kts | 177° |
| 2026-05-07 14:04 | 48.11881 | 16.57055 | 617 ft | 4 kts | 132° |
| 2026-05-07 14:04 | 48.11886 | 16.57045 | 613 ft | 0 kts | 116° |
| 2026-05-07 14:06 | 48.11886 | 16.57046 | 613 ft | 1 kts | 116° |
| 2026-05-07 14:06 | 48.11884 | 16.57054 | 615 ft | 1 kts | 116° |
| 2026-05-07 14:06 | 48.11876 | 16.57079 | 617 ft | 4 kts | 115° |
| 2026-05-07 14:06 | 48.11860 | 16.57129 | 619 ft | 7 kts | 111° |
| 2026-05-07 14:07 | 48.11855 | 16.57207 | 610 ft | 8 kts | 103° |
| 2026-05-07 14:07 | 48.11831 | 16.57296 | 621 ft | 10 kts | 114° |
| 2026-05-07 14:07 | 48.11774 | 16.57362 | 613 ft | 12 kts | 161° |
| 2026-05-07 14:07 | 48.11690 | 16.57395 | 615 ft | 14 kts | 165° |
| 2026-05-07 14:08 | 48.11593 | 16.57437 | 623 ft | 15 kts | 163° |
| 2026-05-07 14:08 | 48.11486 | 16.57456 | 610 ft | 16 kts | 200° |
| 2026-05-07 14:08 | 48.11378 | 16.57380 | 622 ft | 18 kts | 205° |
| 2026-05-07 14:08 | 48.11264 | 16.57298 | 618 ft | 14 kts | 205° |
| 2026-05-07 14:09 | 48.11194 | 16.57325 | 616 ft | 13 kts | 124° |
| 2026-05-07 14:09 | 48.11152 | 16.57450 | 618 ft | 14 kts | 116° |
| 2026-05-07 14:09 | 48.11105 | 16.57593 | 616 ft | 16 kts | 116° |
| 2026-05-07 14:09 | 48.11042 | 16.57644 | 613 ft | 12 kts | 208° |
| 2026-05-07 14:10 | 48.10962 | 16.57584 | 614 ft | 14 kts | 205° |
| 2026-05-07 14:10 | 48.10916 | 16.57537 | 621 ft | 5 kts | 255° |
| 2026-05-07 14:10 | 48.10925 | 16.57500 | 619 ft | 0 kts | 295° |
| 2026-05-07 14:11 | 48.10926 | 16.57498 | 622 ft | 1 kts | 295° |
| 2026-05-07 14:11 | 48.10967 | 16.57371 | 618 ft | 45 kts | 296° |
| 2026-05-07 14:11 | 48.11226 | 16.56575 | 613 ft | 123 kts | 296° |
| 2026-05-07 14:11 | 48.11687 | 16.55151 | 700 ft | 172 kts | 294° |
| 2026-05-07 14:12 | 48.12121 | 16.53499 | 1471 ft | 170 kts | 276° |
| 2026-05-07 14:12 | 48.11969 | 16.51750 | 2133 ft | 177 kts | 252° |
| 2026-05-07 14:12 | 48.11698 | 16.49826 | 2453 ft | 202 kts | 259° |
| 2026-05-07 14:12 | 48.11514 | 16.47631 | 2800 ft | 222 kts | 259° |
| 2026-05-07 14:13 | 48.11204 | 16.45235 | 3082 ft | 249 kts | 255° |
| 2026-05-07 14:13 | 48.10777 | 16.42637 | 3719 ft | 263 kts | 254° |
| 2026-05-07 14:13 | 48.10294 | 16.39970 | 4628 ft | 267 kts | 255° |
| 2026-05-07 14:13 | 48.09825 | 16.37296 | 5607 ft | 267 kts | 259° |
| 2026-05-07 14:14 | 48.09738 | 16.34511 | 6442 ft | 270 kts | 270° |
| 2026-05-07 14:14 | 48.09794 | 16.31694 | 7277 ft | 272 kts | 272° |
| 2026-05-07 14:14 | 48.09892 | 16.28853 | 8107 ft | 275 kts | 277° |
| 2026-05-07 14:14 | 48.10330 | 16.26045 | 8928 ft | 279 kts | 284° |
| 2026-05-07 14:15 | 48.10828 | 16.23224 | 9779 ft | 282 kts | 284° |
| 2026-05-07 14:15 | 48.11333 | 16.20350 | 10363 ft | 294 kts | 283° |
| 2026-05-07 14:15 | 48.11869 | 16.17279 | 10570 ft | 317 kts | 283° |
| 2026-05-07 14:15 | 48.12439 | 16.13998 | 10928 ft | 332 kts | 283° |
| 2026-05-07 14:16 | 48.13026 | 16.10631 | 11557 ft | 337 kts | 283° |
| 2026-05-07 14:16 | 48.13621 | 16.07225 | 12257 ft | 340 kts | 283° |
| 2026-05-07 14:16 | 48.14224 | 16.03787 | 12951 ft | 343 kts | 283° |
| 2026-05-07 14:16 | 48.14829 | 16.00317 | 13660 ft | 346 kts | 283° |
| 2026-05-07 14:17 | 48.15437 | 15.96819 | 14308 ft | 348 kts | 282° |
| 2026-05-07 14:17 | 48.16049 | 15.93294 | 14939 ft | 351 kts | 282° |
| 2026-05-07 14:17 | 48.16664 | 15.89737 | 15556 ft | 354 kts | 282° |
| 2026-05-07 14:17 | 48.17284 | 15.86148 | 16173 ft | 357 kts | 281° |
| 2026-05-07 14:18 | 48.17907 | 15.82526 | 16771 ft | 361 kts | 281° |
| 2026-05-07 14:18 | 48.18534 | 15.78873 | 17365 ft | 364 kts | 281° |
| 2026-05-07 14:18 | 48.19166 | 15.75187 | 17962 ft | 367 kts | 281° |
| 2026-05-07 14:18 | 48.19802 | 15.71462 | 18523 ft | 370 kts | 280° |
| 2026-05-07 14:19 | 48.20442 | 15.67712 | 19057 ft | 373 kts | 280° |
| 2026-05-07 14:19 | 48.20869 | 15.65214 | 19402 ft | 375 kts | 280° |
| 2026-05-07 14:19 | 48.21729 | 15.60175 | 20082 ft | 378 kts | 279° |
| 2026-05-07 14:19 | 48.22382 | 15.56337 | 20609 ft | 381 kts | 280° |
| 2026-05-07 14:20 | 48.23038 | 15.52463 | 21101 ft | 384 kts | 280° |
| 2026-05-07 14:20 | 48.23482 | 15.49836 | 21440 ft | 387 kts | 280° |
| 2026-05-07 14:20 | 48.24362 | 15.44628 | 22101 ft | 391 kts | 279° |
| 2026-05-07 14:20 | 48.24812 | 15.41953 | 22429 ft | 393 kts | 279° |
| 2026-05-07 14:21 | 48.25480 | 15.37964 | 22924 ft | 396 kts | 279° |
| 2026-05-07 14:21 | 48.26150 | 15.33943 | 23403 ft | 399 kts | 279° |
| 2026-05-07 14:21 | 48.26825 | 15.29895 | 23808 ft | 402 kts | 279° |
| 2026-05-07 14:21 | 48.27506 | 15.25812 | 24215 ft | 404 kts | 279° |
| 2026-05-07 14:22 | 48.28411 | 15.20380 | 24796 ft | 406 kts | 278° |
| 2026-05-07 14:22 | 48.28874 | 15.17595 | 25103 ft | 408 kts | 278° |
| 2026-05-07 14:22 | 48.29560 | 15.13457 | 25551 ft | 409 kts | 279° |
| 2026-05-07 14:22 | 48.30247 | 15.09303 | 25966 ft | 411 kts | 279° |
| 2026-05-07 14:23 | 48.30936 | 15.05133 | 26388 ft | 413 kts | 279° |
| 2026-05-07 14:23 | 48.31628 | 15.00935 | 26786 ft | 415 kts | 278° |
| 2026-05-07 14:23 | 48.32313 | 14.96776 | 27185 ft | 417 kts | 278° |
| 2026-05-07 14:23 | 48.33004 | 14.92535 | 27593 ft | 419 kts | 278° |
| 2026-05-07 14:24 | 48.33694 | 14.88272 | 28005 ft | 421 kts | 277° |
| 2026-05-07 14:24 | 48.34397 | 14.83933 | 28412 ft | 423 kts | 278° |
| 2026-05-07 14:24 | 48.35085 | 14.79683 | 28765 ft | 425 kts | 277° |
| 2026-05-07 14:24 | 48.35787 | 14.75352 | 29194 ft | 427 kts | 278° |
| 2026-05-07 14:25 | 48.36491 | 14.71008 | 29599 ft | 429 kts | 278° |
| 2026-05-07 14:25 | 48.37197 | 14.66643 | 29928 ft | 431 kts | 278° |
| 2026-05-07 14:25 | 48.37898 | 14.62305 | 29985 ft | 420 kts | 278° |
| 2026-05-07 14:26 | 48.39254 | 14.53911 | 29992 ft | 410 kts | 277° |
| 2026-05-07 14:26 | 48.40569 | 14.45587 | 29993 ft | 408 kts | 277° |
| 2026-05-07 14:27 | 48.41881 | 14.37270 | 29997 ft | 408 kts | 277° |
| 2026-05-07 14:27 | 48.43189 | 14.28947 | 29996 ft | 409 kts | 277° |
| 2026-05-07 14:28 | 48.44493 | 14.20617 | 30004 ft | 409 kts | 277° |
| 2026-05-07 14:28 | 48.45788 | 14.12272 | 30005 ft | 409 kts | 277° |
| 2026-05-07 14:29 | 48.47084 | 14.03928 | 30011 ft | 409 kts | 277° |
| 2026-05-07 14:29 | 48.48373 | 13.95582 | 30011 ft | 409 kts | 277° |
| 2026-05-07 14:30 | 48.49659 | 13.87241 | 30033 ft | 408 kts | 279° |
| 2026-05-07 14:30 | 48.50935 | 13.78926 | 30028 ft | 406 kts | 279° |
| 2026-05-07 14:31 | 48.52192 | 13.70629 | 30030 ft | 406 kts | 279° |
| 2026-05-07 14:31 | 48.53445 | 13.62333 | 30026 ft | 405 kts | 279° |
| 2026-05-07 14:32 | 48.54694 | 13.54039 | 30027 ft | 405 kts | 279° |
| 2026-05-07 14:32 | 48.55930 | 13.45734 | 30026 ft | 406 kts | 279° |
| 2026-05-07 14:33 | 48.57168 | 13.37418 | 30013 ft | 406 kts | 280° |
| 2026-05-07 14:33 | 48.58400 | 13.29145 | 30012 ft | 407 kts | 279° |
| 2026-05-07 14:34 | 48.59633 | 13.20798 | 30017 ft | 407 kts | 279° |
| 2026-05-07 14:34 | 48.60851 | 13.12442 | 30018 ft | 407 kts | 279° |
| 2026-05-07 14:35 | 48.62416 | 13.04222 | 30019 ft | 410 kts | 292° |
| 2026-05-07 14:35 | 48.64775 | 12.96363 | 30016 ft | 411 kts | 292° |
| 2026-05-07 14:36 | 48.67146 | 12.88485 | 30018 ft | 412 kts | 292° |
| 2026-05-07 14:36 | 48.69514 | 12.80599 | 30015 ft | 412 kts | 292° |
| 2026-05-07 14:37 | 48.71873 | 12.72698 | 30018 ft | 412 kts | 292° |
| 2026-05-07 14:37 | 48.75391 | 12.60827 | 30027 ft | 412 kts | 292° |
| 2026-05-07 14:38 | 48.77732 | 12.52906 | 30022 ft | 412 kts | 292° |
| 2026-05-07 14:38 | 48.80066 | 12.44977 | 30020 ft | 412 kts | 292° |
| 2026-05-07 14:39 | 48.82396 | 12.37039 | 30026 ft | 412 kts | 292° |
| 2026-05-07 14:39 | 48.84726 | 12.29101 | 30052 ft | 411 kts | 293° |
| 2026-05-07 14:40 | 48.87038 | 12.21182 | 30060 ft | 409 kts | 292° |
| 2026-05-07 14:40 | 48.89326 | 12.13296 | 30075 ft | 407 kts | 292° |
| 2026-05-07 14:41 | 48.91608 | 12.05429 | 30068 ft | 406 kts | 292° |
| 2026-05-07 14:41 | 48.93878 | 11.97575 | 30059 ft | 405 kts | 292° |
| 2026-05-07 14:42 | 48.96139 | 11.89727 | 30062 ft | 405 kts | 293° |
| 2026-05-07 14:42 | 48.98389 | 11.81893 | 30062 ft | 403 kts | 293° |
| 2026-05-07 14:43 | 49.00628 | 11.74080 | 30052 ft | 402 kts | 292° |
| 2026-05-07 14:43 | 49.02850 | 11.66267 | 30061 ft | 402 kts | 292° |
| 2026-05-07 14:44 | 49.05072 | 11.58462 | 30056 ft | 401 kts | 292° |
| 2026-05-07 14:44 | 49.07287 | 11.50655 | 30053 ft | 401 kts | 293° |
| 2026-05-07 14:45 | 49.09491 | 11.42848 | 30061 ft | 401 kts | 293° |
| 2026-05-07 14:45 | 49.11672 | 11.35090 | 30060 ft | 400 kts | 293° |
| 2026-05-07 14:46 | 49.13857 | 11.27281 | 30061 ft | 400 kts | 293° |
| 2026-05-07 14:46 | 49.16042 | 11.19472 | 30061 ft | 400 kts | 293° |
| 2026-05-07 14:47 | 49.18223 | 11.11659 | 30048 ft | 400 kts | 293° |
| 2026-05-07 14:47 | 49.19314 | 11.07751 | 29927 ft | 400 kts | 293° |
| 2026-05-07 14:47 | 49.20420 | 11.03787 | 29643 ft | 400 kts | 293° |
| 2026-05-07 14:48 | 49.21507 | 10.99873 | 29358 ft | 399 kts | 293° |
| 2026-05-07 14:48 | 49.22587 | 10.95968 | 29086 ft | 398 kts | 293° |
| 2026-05-07 14:48 | 49.23665 | 10.92062 | 28803 ft | 401 kts | 293° |
| 2026-05-07 14:48 | 49.24756 | 10.88100 | 28520 ft | 404 kts | 293° |
| 2026-05-07 14:49 | 49.25840 | 10.84146 | 28248 ft | 401 kts | 293° |
| 2026-05-07 14:49 | 49.26916 | 10.80221 | 27966 ft | 399 kts | 293° |
| 2026-05-07 14:49 | 49.27984 | 10.76320 | 27650 ft | 394 kts | 293° |
| 2026-05-07 14:49 | 49.29034 | 10.72482 | 27174 ft | 387 kts | 293° |
| 2026-05-07 14:50 | 49.30065 | 10.68711 | 26707 ft | 381 kts | 293° |
| 2026-05-07 14:50 | 49.31066 | 10.65049 | 26245 ft | 375 kts | 293° |
| 2026-05-07 14:50 | 49.32067 | 10.61388 | 25797 ft | 370 kts | 293° |
| 2026-05-07 14:50 | 49.33051 | 10.57768 | 25353 ft | 365 kts | 292° |
| 2026-05-07 14:51 | 49.34019 | 10.54197 | 24932 ft | 360 kts | 292° |
| 2026-05-07 14:51 | 49.34973 | 10.50677 | 24528 ft | 355 kts | 292° |
| 2026-05-07 14:51 | 49.35957 | 10.47230 | 24125 ft | 350 kts | 297° |
| 2026-05-07 14:51 | 49.37238 | 10.44070 | 23753 ft | 352 kts | 305° |
| 2026-05-07 14:52 | 49.38693 | 10.40921 | 23347 ft | 367 kts | 305° |
| 2026-05-07 14:52 | 49.40172 | 10.37698 | 22957 ft | 370 kts | 304° |
| 2026-05-07 14:52 | 49.41646 | 10.34470 | 22595 ft | 369 kts | 304° |
| 2026-05-07 14:52 | 49.43114 | 10.31246 | 22220 ft | 367 kts | 304° |
| 2026-05-07 14:53 | 49.44569 | 10.28040 | 21843 ft | 364 kts | 304° |
| 2026-05-07 14:53 | 49.46013 | 10.24853 | 21486 ft | 362 kts | 304° |
| 2026-05-07 14:53 | 49.47451 | 10.21683 | 21117 ft | 360 kts | 304° |
| 2026-05-07 14:53 | 49.48880 | 10.18534 | 20744 ft | 359 kts | 304° |
| 2026-05-07 14:54 | 49.50303 | 10.15391 | 20385 ft | 357 kts | 304° |
| 2026-05-07 14:54 | 49.51717 | 10.12264 | 20023 ft | 355 kts | 304° |
| 2026-05-07 14:54 | 49.53124 | 10.09148 | 19669 ft | 354 kts | 304° |
| 2026-05-07 14:54 | 49.54529 | 10.06031 | 19304 ft | 354 kts | 304° |
| 2026-05-07 14:55 | 49.55930 | 10.02922 | 18898 ft | 353 kts | 304° |
| 2026-05-07 14:55 | 49.57328 | 9.99829 | 18582 ft | 351 kts | 304° |
| 2026-05-07 14:55 | 49.58718 | 9.96749 | 18214 ft | 349 kts | 304° |
| 2026-05-07 14:55 | 49.60098 | 9.93683 | 17841 ft | 347 kts | 304° |
| 2026-05-07 14:56 | 49.61470 | 9.90632 | 17485 ft | 346 kts | 304° |
| 2026-05-07 14:56 | 49.62838 | 9.87580 | 17137 ft | 345 kts | 304° |
| 2026-05-07 14:56 | 49.64196 | 9.84543 | 16791 ft | 343 kts | 304° |
| 2026-05-07 14:56 | 49.65547 | 9.81516 | 16434 ft | 341 kts | 304° |
| 2026-05-07 14:57 | 49.66890 | 9.78506 | 16087 ft | 340 kts | 304° |
| 2026-05-07 14:57 | 49.68229 | 9.75510 | 15743 ft | 338 kts | 304° |
| 2026-05-07 14:57 | 49.69562 | 9.72528 | 15405 ft | 336 kts | 304° |
| 2026-05-07 14:57 | 49.70884 | 9.69557 | 15056 ft | 335 kts | 304° |
| 2026-05-07 14:58 | 49.72198 | 9.66595 | 14724 ft | 333 kts | 304° |
| 2026-05-07 14:58 | 49.73506 | 9.63651 | 14381 ft | 332 kts | 304° |
| 2026-05-07 14:58 | 49.74923 | 9.60852 | 14123 ft | 330 kts | 309° |
| 2026-05-07 14:58 | 49.76414 | 9.58155 | 13886 ft | 329 kts | 310° |
| 2026-05-07 14:59 | 49.77919 | 9.55486 | 13617 ft | 328 kts | 310° |
| 2026-05-07 14:59 | 49.79423 | 9.52834 | 13346 ft | 327 kts | 311° |
| 2026-05-07 14:59 | 49.80923 | 9.50187 | 13088 ft | 326 kts | 311° |
| 2026-05-07 14:59 | 49.82414 | 9.47548 | 12827 ft | 325 kts | 311° |
| 2026-05-07 15:00 | 49.83887 | 9.44938 | 12511 ft | 317 kts | 311° |
| 2026-05-07 15:00 | 49.85320 | 9.42395 | 12107 ft | 311 kts | 311° |
| 2026-05-07 15:00 | 49.86729 | 9.39888 | 11685 ft | 305 kts | 311° |
| 2026-05-07 15:00 | 49.88112 | 9.37422 | 11262 ft | 301 kts | 310° |
| 2026-05-07 15:01 | 49.89480 | 9.34977 | 10830 ft | 298 kts | 310° |
| 2026-05-07 15:01 | 49.90830 | 9.32562 | 10427 ft | 294 kts | 310° |
| 2026-05-07 15:01 | 49.92147 | 9.30202 | 10195 ft | 285 kts | 310° |
| 2026-05-07 15:01 | 49.93434 | 9.27899 | 9940 ft | 279 kts | 311° |
| 2026-05-07 15:02 | 49.94704 | 9.25625 | 9808 ft | 279 kts | 310° |
| 2026-05-07 15:02 | 49.95972 | 9.23354 | 9674 ft | 278 kts | 311° |
| 2026-05-07 15:02 | 49.97467 | 9.21479 | 9538 ft | 278 kts | 330° |
| 2026-05-07 15:02 | 49.99196 | 9.20130 | 9406 ft | 278 kts | 334° |
| 2026-05-07 15:03 | 50.00947 | 9.18846 | 9104 ft | 280 kts | 334° |
| 2026-05-07 15:03 | 50.02712 | 9.17559 | 8606 ft | 280 kts | 334° |
| 2026-05-07 15:03 | 50.04478 | 9.16273 | 8163 ft | 279 kts | 334° |
| 2026-05-07 15:03 | 50.06234 | 9.15002 | 7777 ft | 277 kts | 334° |
| 2026-05-07 15:04 | 50.07972 | 9.13746 | 7395 ft | 274 kts | 334° |
| 2026-05-07 15:04 | 50.09693 | 9.12503 | 7021 ft | 272 kts | 334° |
| 2026-05-07 15:04 | 50.11283 | 9.10970 | 6642 ft | 268 kts | 314° |
| 2026-05-07 15:04 | 50.12241 | 9.08544 | 6340 ft | 262 kts | 289° |
| 2026-05-07 15:05 | 50.12576 | 9.06767 | 6162 ft | 257 kts | 285° |
| 2026-05-07 15:05 | 50.13006 | 9.04092 | 5903 ft | 251 kts | 284° |
| 2026-05-07 15:05 | 50.13497 | 9.00634 | 5558 ft | 243 kts | 276° |
| 2026-05-07 15:05 | 50.13304 | 8.98062 | 5323 ft | 237 kts | 253° |
| 2026-05-07 15:06 | 50.12751 | 8.95708 | 5083 ft | 226 kts | 251° |
| 2026-05-07 15:06 | 50.12229 | 8.93483 | 5003 ft | 211 kts | 252° |
| 2026-05-07 15:06 | 50.11891 | 8.92039 | 4892 ft | 209 kts | 252° |
| 2026-05-07 15:06 | 50.11393 | 8.89915 | 4619 ft | 208 kts | 252° |
| 2026-05-07 15:07 | 50.10898 | 8.87802 | 4339 ft | 207 kts | 252° |
| 2026-05-07 15:07 | 50.10416 | 8.85754 | 4059 ft | 196 kts | 252° |
| 2026-05-07 15:07 | 50.09959 | 8.83812 | 3799 ft | 187 kts | 252° |
| 2026-05-07 15:07 | 50.09527 | 8.81973 | 3542 ft | 180 kts | 252° |
| 2026-05-07 15:08 | 50.09102 | 8.80168 | 3304 ft | 175 kts | 253° |
| 2026-05-07 15:08 | 50.08689 | 8.78413 | 3089 ft | 171 kts | 251° |
| 2026-05-07 15:08 | 50.08281 | 8.76682 | 2870 ft | 170 kts | 252° |
| 2026-05-07 15:08 | 50.07870 | 8.74956 | 2626 ft | 170 kts | 251° |
| 2026-05-07 15:09 | 50.07457 | 8.73239 | 2354 ft | 168 kts | 251° |
| 2026-05-07 15:09 | 50.07071 | 8.71610 | 2182 ft | 152 kts | 253° |
| 2026-05-07 15:09 | 50.06846 | 8.70060 | 1983 ft | 144 kts | 265° |
| 2026-05-07 15:09 | 50.06772 | 8.68530 | 1764 ft | 141 kts | 265° |
| 2026-05-07 15:10 | 50.06608 | 8.67029 | 1568 ft | 142 kts | 249° |
| 2026-05-07 15:10 | 50.06164 | 8.65647 | 1456 ft | 142 kts | 245° |
| 2026-05-07 15:10 | 50.05815 | 8.64251 | 1265 ft | 135 kts | 255° |
| 2026-05-07 15:10 | 50.05520 | 8.62888 | 1057 ft | 133 kts | 249° |
| 2026-05-07 15:11 | 50.05191 | 8.61553 | 849 ft | 132 kts | 249° |
| 2026-05-07 15:11 | 50.04878 | 8.60233 | 657 ft | 129 kts | 249° |
| 2026-05-07 15:11 | 50.04566 | 8.58926 | 468 ft | 129 kts | 250° |
| 2026-05-07 15:11 | 50.04261 | 8.57646 | 366 ft | 117 kts | 249° |
| 2026-05-07 15:12 | 50.04031 | 8.56680 | 359 ft | 54 kts | 250° |
| 2026-05-07 15:12 | 50.03988 | 8.56404 | 353 ft | 20 kts | 277° |
| 2026-05-07 15:12 | 50.04008 | 8.56222 | 351 ft | 8 kts | 281° |
| 2026-05-07 15:12 | 50.04023 | 8.56122 | 350 ft | 9 kts | 290° |
| 2026-05-07 15:13 | 50.04074 | 8.56104 | 351 ft | 8 kts | 20° |
| 2026-05-07 15:13 | 50.04091 | 8.56156 | 352 ft | 6 kts | 68° |
| 2026-05-07 15:13 | 50.04111 | 8.56219 | 361 ft | 7 kts | 63° |
| 2026-05-07 15:13 | 50.04139 | 8.56282 | 355 ft | 7 kts | 33° |
| 2026-05-07 15:14 | 50.04193 | 8.56271 | 359 ft | 10 kts | 336° |
| 2026-05-07 15:14 | 50.04268 | 8.56224 | 357 ft | 13 kts | 332° |
| 2026-05-07 15:14 | 50.04293 | 8.56109 | 360 ft | 11 kts | 304° |
| 2026-05-07 15:14 | 50.04365 | 8.56039 | 361 ft | 14 kts | 343° |
| 2026-05-07 15:15 | 50.04445 | 8.56086 | 360 ft | 14 kts | 65° |
| 2026-05-07 15:15 | 50.04477 | 8.56214 | 362 ft | 6 kts | 59° |
| 2026-05-07 15:15 | 50.04515 | 8.56210 | 363 ft | 6 kts | 346° |
| 2026-05-07 15:15 | 50.04522 | 8.56208 | 360 ft | 0 kts | 352° |
| 2026-05-07 15:16 | 50.04523 | 8.56209 | 360 ft | 0 kts | 1° |
| 2026-05-07 15:16 | 50.04524 | 8.56210 | 360 ft | 0 kts | 13° |
| 2026-05-07 15:16 | 50.04531 | 8.56216 | 363 ft | 3 kts | 25° |
| 2026-05-07 15:16 | 50.04542 | 8.56228 | 362 ft | 0 kts | 34° |